createdAt,value
2023-05-06T00:00:24.685Z,25.00
2023-05-06T00:01:24.757Z,25.00
2023-05-06T00:02:24.871Z,25.00
2023-05-06T00:03:25.044Z,0.00
2023-05-06T00:04:25.007Z,0.00
2023-05-06T00:05:25.037Z,0.00
2023-05-06T00:06:25.089Z,0.00
2023-05-06T00:07:25.133Z,0.00
2023-05-06T00:08:25.201Z,0.00
2023-05-06T00:09:25.233Z,0.00
2023-05-06T00:10:25.249Z,9.77
2023-05-06T00:11:25.275Z,25.00
2023-05-06T00:12:25.272Z,25.00
2023-05-06T00:13:25.396Z,26.00
2023-05-06T00:14:25.308Z,26.17
2023-05-06T00:15:25.308Z,25.00
2023-05-06T00:16:25.369Z,25.00
2023-05-06T00:17:25.359Z,25.00
2023-05-06T00:18:25.340Z,25.00
2023-05-06T00:19:25.384Z,27.38
2023-05-06T00:20:25.367Z,25.91
2023-05-06T00:21:25.370Z,26.69
2023-05-06T00:22:25.407Z,26.05
2023-05-06T00:23:25.392Z,25.81
2023-05-06T00:24:25.413Z,26.06
2023-05-06T00:25:25.423Z,26.28
2023-05-06T00:26:25.429Z,26.75
2023-05-06T00:27:25.445Z,26.45
2023-05-06T00:28:25.461Z,25.26
2023-05-06T00:29:25.580Z,24.22
2023-05-06T00:30:25.492Z,25.00
2023-05-06T00:31:25.568Z,26.53
2023-05-06T00:32:25.544Z,27.80
2023-05-06T00:33:25.535Z,25.86
2023-05-06T00:34:25.532Z,28.47
2023-05-06T00:35:25.554Z,25.94
2023-05-06T00:36:25.553Z,26.16
2023-05-06T00:37:25.572Z,26.61
2023-05-06T00:38:25.592Z,26.58
2023-05-06T00:39:25.598Z,25.19
2023-05-06T00:40:26.562Z,28.52
2023-05-06T00:41:25.635Z,26.81
2023-05-06T00:42:25.661Z,27.33
2023-05-06T00:43:25.668Z,28.15
2023-05-06T00:44:25.678Z,25.64
2023-05-06T00:45:25.908Z,26.67
2023-05-06T00:46:25.780Z,26.51
2023-05-06T00:47:25.720Z,25.68
2023-05-06T00:48:25.799Z,25.00
2023-05-06T00:49:25.759Z,25.00
2023-05-06T00:50:25.778Z,25.78
2023-05-06T00:51:25.790Z,27.58
2023-05-06T00:52:25.820Z,26.13
2023-05-06T00:53:25.854Z,26.81
2023-05-06T00:54:25.889Z,29.46
2023-05-06T00:55:25.910Z,25.58
2023-05-06T00:56:25.928Z,27.28
2023-05-06T00:57:25.935Z,26.63
2023-05-06T00:58:25.953Z,26.76
2023-05-06T00:59:25.988Z,25.64
2023-05-06T01:00:25.990Z,26.27
2023-05-06T01:01:26.185Z,25.00
2023-05-06T01:02:33.279Z,27.42
2023-05-06T01:03:26.165Z,27.75
2023-05-06T01:04:26.065Z,28.87
2023-05-06T01:05:26.097Z,27.30
2023-05-06T01:06:26.087Z,28.17
2023-05-06T01:07:26.078Z,25.87
2023-05-06T01:08:26.085Z,26.86
2023-05-06T01:09:26.103Z,26.91
2023-05-06T01:10:26.114Z,27.63
2023-05-06T01:11:26.116Z,25.39
2023-05-06T01:12:26.116Z,27.52
2023-05-06T01:13:26.129Z,27.99
2023-05-06T01:14:26.128Z,26.94
2023-05-06T01:15:26.129Z,25.65
2023-05-06T01:16:26.152Z,26.47
2023-05-06T01:17:26.262Z,25.58
2023-05-06T01:18:26.149Z,25.00
2023-05-06T01:19:26.150Z,26.09
2023-05-06T01:20:26.158Z,29.33
2023-05-06T01:21:26.162Z,25.77
2023-05-06T01:22:26.183Z,27.55
2023-05-06T01:23:26.176Z,26.19
2023-05-06T01:24:26.172Z,25.14
2023-05-06T01:25:26.186Z,28.64
2023-05-06T01:26:26.223Z,27.27
2023-05-06T01:27:26.190Z,27.88
2023-05-06T01:28:26.208Z,26.35
2023-05-06T01:29:26.206Z,27.08
2023-05-06T01:30:27.797Z,27.73
2023-05-06T01:31:26.484Z,31.21
2023-05-06T01:32:26.422Z,26.12
2023-05-06T01:33:26.515Z,25.72
2023-05-06T01:34:26.496Z,25.81
2023-05-06T01:35:26.451Z,26.14
2023-05-06T01:36:26.468Z,28.06
2023-05-06T01:37:26.494Z,28.37
2023-05-06T01:38:26.510Z,25.00
2023-05-06T01:39:26.537Z,28.24
2023-05-06T01:40:26.551Z,25.00
2023-05-06T01:41:26.559Z,27.56
2023-05-06T01:42:26.588Z,28.22
2023-05-06T01:43:26.621Z,25.74
2023-05-06T01:44:26.617Z,27.67
2023-05-06T01:45:26.644Z,28.92
2023-05-06T01:46:26.684Z,27.92
2023-05-06T01:47:26.705Z,29.03
2023-05-06T01:48:26.678Z,29.63
2023-05-06T01:49:26.793Z,25.07
2023-05-06T01:50:26.718Z,26.39
2023-05-06T01:51:26.729Z,28.48
2023-05-06T01:52:26.753Z,28.43
2023-05-06T01:53:26.785Z,29.80
2023-05-06T01:54:26.766Z,29.35
2023-05-06T01:55:26.788Z,27.74
2023-05-06T01:56:26.821Z,30.46
2023-05-06T01:57:26.825Z,28.16
2023-05-06T01:58:26.846Z,28.29
2023-05-06T02:00:25.892Z,25.36
2023-05-06T02:01:26.980Z,27.68
2023-05-06T02:02:27.022Z,27.34
2023-05-06T02:03:27.004Z,25.00
2023-05-06T02:04:26.953Z,27.84
2023-05-06T02:05:27.083Z,29.26
2023-05-06T02:06:26.996Z,28.25
2023-05-06T02:07:27.012Z,26.68
2023-05-06T02:08:27.057Z,28.46
2023-05-06T02:09:27.058Z,25.44
2023-05-06T02:10:27.080Z,26.67
2023-05-06T02:11:27.101Z,25.98
2023-05-06T02:12:27.119Z,28.14
2023-05-06T02:13:27.144Z,27.61
2023-05-06T02:14:27.160Z,27.07
2023-05-06T02:15:27.176Z,27.32
2023-05-06T02:16:27.225Z,27.36
2023-05-06T02:17:27.248Z,25.00
2023-05-06T02:18:27.241Z,29.84
2023-05-06T02:19:27.256Z,26.12
2023-05-06T02:20:27.279Z,26.29
2023-05-06T02:21:29.140Z,26.02
2023-05-06T02:22:27.310Z,30.47
2023-05-06T02:23:26.320Z,30.75
2023-05-06T02:24:27.338Z,30.86
2023-05-06T02:25:27.359Z,31.11
2023-05-06T02:26:27.359Z,28.84
2023-05-06T02:27:27.370Z,26.77
2023-05-06T02:28:27.395Z,26.94
2023-05-06T02:29:27.407Z,27.48
2023-05-06T02:30:27.423Z,29.29
2023-05-06T02:31:27.517Z,29.13
2023-05-06T02:32:27.461Z,27.34
2023-05-06T02:33:27.447Z,28.89
2023-05-06T02:34:27.461Z,26.02
2023-05-06T02:35:27.472Z,27.86
2023-05-06T02:36:27.490Z,27.37
2023-05-06T02:37:27.596Z,26.94
2023-05-06T02:38:27.512Z,29.37
2023-05-06T02:39:27.521Z,28.22
2023-05-06T02:40:27.536Z,26.04
2023-05-06T02:41:27.567Z,26.61
2023-05-06T02:42:27.696Z,26.83
2023-05-06T02:43:27.594Z,30.59
2023-05-06T02:44:27.615Z,28.77
2023-05-06T02:45:27.632Z,25.21
2023-05-06T02:46:27.611Z,26.38
2023-05-06T02:47:27.688Z,30.21
2023-05-06T02:48:27.639Z,26.18
2023-05-06T02:49:27.664Z,27.39
2023-05-06T02:50:27.663Z,27.24
2023-05-06T02:51:27.659Z,28.17
2023-05-06T02:52:27.682Z,29.34
2023-05-06T02:53:27.713Z,28.76
2023-05-06T02:54:27.688Z,26.15
2023-05-06T02:55:27.711Z,27.33
2023-05-06T02:56:27.717Z,26.87
2023-05-06T02:57:27.712Z,25.40
2023-05-06T02:58:27.720Z,26.97
2023-05-06T02:59:27.725Z,25.50
2023-05-06T03:00:27.733Z,27.16
2023-05-06T03:01:27.778Z,26.75
2023-05-06T03:02:27.798Z,28.38
2023-05-06T03:03:27.755Z,32.40
2023-05-06T03:04:27.829Z,28.38
2023-05-06T03:05:27.769Z,29.85
2023-05-06T03:06:27.771Z,26.79
2023-05-06T03:07:27.787Z,29.00
2023-05-06T03:08:27.812Z,28.45
2023-05-06T03:09:27.992Z,26.88
2023-05-06T03:10:27.830Z,26.33
2023-05-06T03:11:27.844Z,27.54
2023-05-06T03:12:27.819Z,29.52
2023-05-06T03:13:27.833Z,27.54
2023-05-06T03:14:28.625Z,29.14
2023-05-06T03:15:27.894Z,27.31
2023-05-06T03:16:27.910Z,28.81
2023-05-06T03:17:27.919Z,28.82
2023-05-06T03:18:27.883Z,25.82
2023-05-06T03:19:27.874Z,29.59
2023-05-06T03:20:27.890Z,27.99
2023-05-06T03:21:27.931Z,28.50
2023-05-06T03:22:27.918Z,27.64
2023-05-06T03:23:27.909Z,27.86
2023-05-06T03:24:27.908Z,29.40
2023-05-06T03:25:28.029Z,29.44
2023-05-06T03:26:27.929Z,29.15
2023-05-06T03:27:27.952Z,25.87
2023-05-06T03:28:27.968Z,28.50
2023-05-06T03:29:28.007Z,27.72
2023-05-06T03:30:28.064Z,27.56
2023-05-06T03:31:28.140Z,26.89
2023-05-06T03:32:28.146Z,26.45
2023-05-06T03:33:28.159Z,30.18
2023-05-06T03:34:28.200Z,27.32
2023-05-06T03:35:28.246Z,26.14
2023-05-06T03:36:28.275Z,28.61
2023-05-06T03:37:28.312Z,28.65
2023-05-06T03:38:28.369Z,28.89
2023-05-06T03:39:28.385Z,28.58
2023-05-06T03:40:28.421Z,28.29
2023-05-06T03:41:28.538Z,26.82
2023-05-06T03:42:28.508Z,26.56
2023-05-06T03:43:28.550Z,27.54
2023-05-06T03:44:28.578Z,26.45
2023-05-06T03:45:28.607Z,28.97
2023-05-06T03:46:28.678Z,28.00
2023-05-06T03:47:28.701Z,25.81
2023-05-06T03:48:28.718Z,29.55
2023-05-06T03:49:28.750Z,29.77
2023-05-06T03:50:28.799Z,25.49
2023-05-06T03:51:28.824Z,30.12
2023-05-06T03:52:28.855Z,29.66
2023-05-06T03:53:28.912Z,26.26
2023-05-06T03:54:28.934Z,27.19
2023-05-06T03:55:28.988Z,28.44
2023-05-06T03:56:29.032Z,28.74
2023-05-06T03:57:29.089Z,27.24
2023-05-06T03:58:29.091Z,26.77
2023-05-06T03:59:29.143Z,27.00
2023-05-06T04:00:29.159Z,29.52
2023-05-06T04:01:29.181Z,29.67
2023-05-06T04:02:29.329Z,26.45
2023-05-06T04:03:29.299Z,28.89
2023-05-06T04:04:29.318Z,27.02
2023-05-06T04:05:29.341Z,26.18
2023-05-06T04:06:29.363Z,25.00
2023-05-06T04:07:29.414Z,29.69
2023-05-06T04:08:29.445Z,28.21
2023-05-06T04:09:29.480Z,29.29
2023-05-06T04:10:29.526Z,28.20
2023-05-06T04:11:29.881Z,31.16
2023-05-06T04:12:29.611Z,25.49
2023-05-06T04:13:29.748Z,30.68
2023-05-06T04:14:29.694Z,28.27
2023-05-06T04:15:29.735Z,28.65
2023-05-06T04:16:29.806Z,30.69
2023-05-06T04:17:29.814Z,27.92
2023-05-06T04:18:29.851Z,29.86
2023-05-06T04:19:29.899Z,30.81
2023-05-06T04:20:29.931Z,28.35
2023-05-06T04:21:29.975Z,28.33
2023-05-06T04:22:30.005Z,27.21
2023-05-06T04:23:30.044Z,29.61
2023-05-06T04:24:30.081Z,28.23
2023-05-06T04:25:30.131Z,28.68
2023-05-06T04:26:30.157Z,28.67
2023-05-06T04:27:30.202Z,28.21
2023-05-06T04:28:30.245Z,26.66
2023-05-06T04:29:30.373Z,25.25
2023-05-06T04:30:30.320Z,27.30
2023-05-06T04:31:30.386Z,26.83
2023-05-06T04:32:30.462Z,29.12
2023-05-06T04:33:30.439Z,25.97
2023-05-06T04:34:30.475Z,29.25
2023-05-06T04:35:30.548Z,29.92
2023-05-06T04:36:30.561Z,26.64
2023-05-06T04:37:30.613Z,26.88
2023-05-06T04:38:30.633Z,30.41
2023-05-06T04:39:30.673Z,28.20
2023-05-06T04:40:30.741Z,25.00
2023-05-06T04:41:30.748Z,32.19
2023-05-06T04:42:30.792Z,32.36
2023-05-06T04:43:30.846Z,29.80
2023-05-06T04:44:30.898Z,30.04
2023-05-06T04:45:30.989Z,27.36
2023-05-06T04:46:30.960Z,29.32
2023-05-06T04:47:31.036Z,30.62
2023-05-06T04:48:31.053Z,29.87
2023-05-06T04:49:31.112Z,27.61
2023-05-06T04:50:31.136Z,27.42
2023-05-06T04:51:31.186Z,29.00
2023-05-06T04:52:31.222Z,28.19
2023-05-06T04:53:31.274Z,26.71
2023-05-06T04:54:31.305Z,29.94
2023-05-06T04:55:31.359Z,27.95
2023-05-06T04:56:31.395Z,29.97
2023-05-06T04:57:31.433Z,28.90
2023-05-06T04:58:31.487Z,28.78
2023-05-06T04:59:31.523Z,30.38
2023-05-06T05:00:31.574Z,27.36
2023-05-06T05:01:31.721Z,31.00
2023-05-06T05:02:31.757Z,27.69
2023-05-06T05:03:31.802Z,29.72
2023-05-06T05:04:31.743Z,28.59
2023-05-06T05:05:31.780Z,29.53
2023-05-06T05:06:31.817Z,29.98
2023-05-06T05:07:31.865Z,26.45
2023-05-06T05:08:31.905Z,28.77
2023-05-06T05:09:31.934Z,26.80
2023-05-06T05:10:31.986Z,28.16
2023-05-06T05:11:32.045Z,29.24
2023-05-06T05:12:32.111Z,29.19
2023-05-06T05:13:32.124Z,25.54
2023-05-06T05:14:32.160Z,28.75
2023-05-06T05:15:32.219Z,29.41
2023-05-06T05:16:32.278Z,29.51
2023-05-06T05:17:32.412Z,27.03
2023-05-06T05:18:32.336Z,27.57
2023-05-06T05:19:32.383Z,29.41
2023-05-06T05:20:32.424Z,26.93
2023-05-06T05:21:32.547Z,27.80
2023-05-06T05:22:32.507Z,28.47
2023-05-06T05:23:32.565Z,29.06
2023-05-06T05:24:32.590Z,30.87
2023-05-06T05:25:32.636Z,29.03
2023-05-06T05:26:32.676Z,26.16
2023-05-06T05:27:32.716Z,29.70
2023-05-06T05:28:32.764Z,29.94
2023-05-06T05:29:32.813Z,29.78
2023-05-06T05:30:32.855Z,30.12
2023-05-06T05:31:32.940Z,28.55
2023-05-06T05:32:33.002Z,28.51
2023-05-06T05:33:33.258Z,30.29
2023-05-06T05:34:33.039Z,30.04
2023-05-06T05:35:33.090Z,29.38
2023-05-06T05:36:33.109Z,29.41
2023-05-06T05:37:33.155Z,28.67
2023-05-06T05:38:33.189Z,29.44
2023-05-06T05:39:33.233Z,27.68
2023-05-06T05:40:33.285Z,30.29
2023-05-06T05:41:33.319Z,25.65
2023-05-06T05:42:33.363Z,27.24
2023-05-06T05:43:33.423Z,29.62
2023-05-06T05:44:33.451Z,29.75
2023-05-06T05:45:33.493Z,27.69
2023-05-06T05:46:33.571Z,28.18
2023-05-06T05:47:33.612Z,31.36
2023-05-06T05:48:33.636Z,26.64
2023-05-06T05:49:33.779Z,31.50
2023-05-06T05:50:33.742Z,30.37
2023-05-06T05:51:33.758Z,27.71
2023-05-06T05:52:33.800Z,28.02
2023-05-06T05:53:33.850Z,30.21
2023-05-06T05:54:33.888Z,26.63
2023-05-06T05:55:33.952Z,26.51
2023-05-06T05:56:33.975Z,29.32
2023-05-06T05:57:34.023Z,25.34
2023-05-06T05:58:34.097Z,28.35
2023-05-06T05:59:34.172Z,35.84
2023-05-06T06:00:34.266Z,44.81
2023-05-06T06:01:34.315Z,50.96
2023-05-06T06:02:34.632Z,56.96
2023-05-06T06:03:34.577Z,60.58
2023-05-06T06:04:34.444Z,64.12
2023-05-06T06:05:34.460Z,61.84
2023-05-06T06:06:34.470Z,54.14
2023-05-06T06:07:34.471Z,60.59
2023-05-06T06:08:34.500Z,62.54
2023-05-06T06:09:34.527Z,78.41
2023-05-06T06:10:34.557Z,79.97
2023-05-06T06:11:34.593Z,82.50
2023-05-06T06:12:34.662Z,87.56
2023-05-06T06:13:34.650Z,92.91
2023-05-06T06:14:34.706Z,96.80
2023-05-06T06:15:34.778Z,99.24
2023-05-06T06:16:34.858Z,101.39
2023-05-06T06:17:34.900Z,107.25
2023-05-06T06:18:35.233Z,107.16
2023-05-06T06:19:35.058Z,110.44
2023-05-06T06:20:35.153Z,119.41
2023-05-06T06:21:35.388Z,123.30
2023-05-06T06:22:35.388Z,121.73
2023-05-06T06:23:35.407Z,117.76
2023-05-06T06:24:35.528Z,119.63
2023-05-06T06:25:35.591Z,122.25
2023-05-06T06:26:35.665Z,125.48
2023-05-06T06:27:35.734Z,118.44
2023-05-06T06:28:35.814Z,113.60
2023-05-06T06:29:35.876Z,110.12
2023-05-06T06:30:37.732Z,102.87
2023-05-06T06:31:37.561Z,104.92
2023-05-06T06:32:36.017Z,105.21
2023-05-06T06:33:36.014Z,102.85
2023-05-06T06:34:36.031Z,101.94
2023-05-06T06:35:36.053Z,99.22
2023-05-06T06:36:36.099Z,100.49
2023-05-06T06:37:36.187Z,104.15
2023-05-06T06:38:36.179Z,100.36
2023-05-06T06:39:36.164Z,101.69
2023-05-06T06:40:36.167Z,101.30
2023-05-06T06:41:36.288Z,104.78
2023-05-06T06:42:36.241Z,105.80
2023-05-06T06:43:36.260Z,104.10
2023-05-06T06:44:36.308Z,99.95
2023-05-06T06:45:36.342Z,94.87
2023-05-06T06:46:36.348Z,93.79
2023-05-06T06:47:36.365Z,90.18
2023-05-06T06:48:36.354Z,93.40
2023-05-06T06:49:36.381Z,90.77
2023-05-06T06:50:36.400Z,91.56
2023-05-06T06:51:36.425Z,94.79
2023-05-06T06:52:36.453Z,101.48
2023-05-06T06:53:36.569Z,100.36
2023-05-06T06:54:36.497Z,90.80
2023-05-06T06:55:36.536Z,106.76
2023-05-06T06:56:36.582Z,116.59
2023-05-06T06:57:36.619Z,139.16
2023-05-06T06:58:36.667Z,145.81
2023-05-06T06:59:36.712Z,145.26
2023-05-06T07:00:36.749Z,158.89
2023-05-06T07:01:36.980Z,149.85
2023-05-06T07:02:36.860Z,160.55
2023-05-06T07:03:36.866Z,171.98
2023-05-06T07:04:36.993Z,170.70
2023-05-06T07:05:36.939Z,163.31
2023-05-06T07:06:36.956Z,159.29
2023-05-06T07:07:37.006Z,161.71
2023-05-06T07:08:37.034Z,159.09
2023-05-06T07:09:38.916Z,157.84
2023-05-06T07:10:37.146Z,158.00
2023-05-06T07:11:37.099Z,153.94
2023-05-06T07:12:37.146Z,150.62
2023-05-06T07:13:37.193Z,146.81
2023-05-06T07:14:37.175Z,143.81
2023-05-06T07:15:37.205Z,144.50
2023-05-06T07:16:37.286Z,140.72
2023-05-06T07:17:37.260Z,138.00
2023-05-06T07:18:37.272Z,137.85
2023-05-06T07:19:37.301Z,137.40
2023-05-06T07:20:37.328Z,133.66
2023-05-06T07:21:37.373Z,132.79
2023-05-06T07:22:37.361Z,128.64
2023-05-06T07:23:37.392Z,126.84
2023-05-06T07:24:37.426Z,126.62
2023-05-06T07:25:37.466Z,122.34
2023-05-06T07:26:37.450Z,123.68
2023-05-06T07:27:37.480Z,121.05
2023-05-06T07:28:37.471Z,121.81
2023-05-06T07:29:37.486Z,119.19
2023-05-06T07:30:37.492Z,117.17
2023-05-06T07:31:37.556Z,116.73
2023-05-06T07:32:37.546Z,103.03
2023-05-06T07:33:37.548Z,110.09
2023-05-06T07:34:37.552Z,107.26
2023-05-06T07:35:37.576Z,109.72
2023-05-06T07:36:40.023Z,109.94
2023-05-06T07:37:37.610Z,118.78
2023-05-06T07:38:37.610Z,116.21
2023-05-06T07:39:37.667Z,112.84
2023-05-06T07:40:37.693Z,114.43
2023-05-06T07:41:37.752Z,114.24
2023-05-06T07:42:37.663Z,113.43
2023-05-06T07:43:37.677Z,113.45
2023-05-06T07:44:37.680Z,110.52
2023-05-06T07:45:37.739Z,113.41
2023-05-06T07:46:37.884Z,114.03
2023-05-06T07:47:37.865Z,109.94
2023-05-06T07:48:37.897Z,111.10
2023-05-06T07:49:37.942Z,112.30
2023-05-06T07:50:37.978Z,111.86
2023-05-06T07:51:37.999Z,109.19
2023-05-06T07:52:38.040Z,106.28
2023-05-06T07:53:38.076Z,108.32
2023-05-06T07:54:38.098Z,106.22
2023-05-06T07:55:38.146Z,104.34
2023-05-06T07:56:38.161Z,103.43
2023-05-06T07:57:38.290Z,102.19
2023-05-06T07:58:38.238Z,104.66
2023-05-06T07:59:38.259Z,103.00
2023-05-06T08:00:38.299Z,100.13
2023-05-06T08:01:38.357Z,100.06
2023-05-06T08:02:38.418Z,101.93
2023-05-06T08:03:38.537Z,103.71
2023-05-06T08:04:38.466Z,103.31
2023-05-06T08:05:38.444Z,99.66
2023-05-06T08:06:38.464Z,100.12
2023-05-06T08:07:38.527Z,97.93
2023-05-06T08:08:38.503Z,97.29
2023-05-06T08:09:38.535Z,101.12
2023-05-06T08:10:38.552Z,99.60
2023-05-06T08:11:38.573Z,98.72
2023-05-06T08:12:38.699Z,96.80
2023-05-06T08:13:38.721Z,95.17
2023-05-06T08:14:38.630Z,92.76
2023-05-06T08:15:38.644Z,92.84
2023-05-06T08:16:38.718Z,93.60
2023-05-06T08:17:39.592Z,91.53
2023-05-06T08:18:38.691Z,91.13
2023-05-06T08:19:38.709Z,92.59
2023-05-06T08:20:38.726Z,91.66
2023-05-06T08:21:38.722Z,93.14
2023-05-06T08:22:39.244Z,92.69
2023-05-06T08:23:38.768Z,85.19
2023-05-06T08:24:38.766Z,84.10
2023-05-06T08:25:38.793Z,82.33
2023-05-06T08:26:38.794Z,82.99
2023-05-06T08:27:38.801Z,76.79
2023-05-06T08:28:38.812Z,83.21
2023-05-06T08:29:38.846Z,81.70
2023-05-06T08:30:38.823Z,84.29
2023-05-06T08:31:38.874Z,86.27
2023-05-06T08:32:38.903Z,89.23
2023-05-06T08:33:38.879Z,84.86
2023-05-06T08:34:38.895Z,87.91
2023-05-06T08:35:38.919Z,81.61
2023-05-06T08:36:38.929Z,81.56
2023-05-06T08:37:38.934Z,81.56
2023-05-06T08:38:38.950Z,61.30
2023-05-06T08:39:38.978Z,62.12
2023-05-06T08:40:39.000Z,64.74
2023-05-06T08:41:39.035Z,63.76
2023-05-06T08:42:39.076Z,59.75
2023-05-06T08:43:39.073Z,62.74
2023-05-06T08:44:39.091Z,54.30
2023-05-06T08:45:39.182Z,52.29
2023-05-06T08:46:39.154Z,62.15
2023-05-06T08:47:39.225Z,73.15
2023-05-06T08:48:39.224Z,79.16
2023-05-06T08:49:39.244Z,88.48
2023-05-06T08:50:39.262Z,86.74
2023-05-06T08:51:39.283Z,89.61
2023-05-06T08:52:39.327Z,91.40
2023-05-06T08:53:39.342Z,89.87
2023-05-06T08:54:39.352Z,84.75
2023-05-06T08:55:39.387Z,85.20
2023-05-06T08:56:39.396Z,88.75
2023-05-06T08:57:39.436Z,101.43
2023-05-06T08:58:41.255Z,100.93
2023-05-06T08:59:39.473Z,103.93
2023-05-06T09:00:39.456Z,97.78
2023-05-06T09:01:39.676Z,97.30
2023-05-06T09:02:42.123Z,105.94
2023-05-06T09:03:39.514Z,106.44
2023-05-06T09:04:39.542Z,106.03
2023-05-06T09:05:39.533Z,105.58
2023-05-06T09:06:39.536Z,101.29
2023-05-06T09:07:39.536Z,98.66
2023-05-06T09:08:39.541Z,96.35
2023-05-06T09:09:39.541Z,101.52
2023-05-06T09:10:39.553Z,98.86
2023-05-06T09:11:39.672Z,117.35
2023-05-06T09:12:39.635Z,103.76
2023-05-06T09:13:39.582Z,99.16
2023-05-06T09:14:39.597Z,92.16
2023-05-06T09:15:39.629Z,92.25
2023-05-06T09:16:39.638Z,95.38
2023-05-06T09:17:39.747Z,91.55
2023-05-06T09:18:39.661Z,98.58
2023-05-06T09:19:39.657Z,119.45
2023-05-06T09:20:39.677Z,126.04
2023-05-06T09:21:39.685Z,136.66
2023-05-06T09:22:39.689Z,139.41
2023-05-06T09:23:39.721Z,143.88
2023-05-06T09:24:39.709Z,142.10
2023-05-06T09:25:39.742Z,143.67
2023-05-06T09:26:39.747Z,144.55
2023-05-06T09:27:39.749Z,147.21
2023-05-06T09:28:39.778Z,145.60
2023-05-06T09:29:39.773Z,148.37
2023-05-06T09:30:39.825Z,150.59
2023-05-06T09:31:39.820Z,149.76
2023-05-06T09:32:40.664Z,149.08
2023-05-06T09:33:40.031Z,153.34
2023-05-06T09:34:39.972Z,153.76
2023-05-06T09:35:40.066Z,157.95
2023-05-06T09:36:40.116Z,156.88
2023-05-06T09:37:40.186Z,157.35
2023-05-06T09:38:40.254Z,158.44
2023-05-06T09:39:40.325Z,161.86
2023-05-06T09:40:40.393Z,162.54
2023-05-06T09:41:40.500Z,165.77
2023-05-06T09:42:40.522Z,166.84
2023-05-06T09:43:40.591Z,166.82
2023-05-06T09:44:40.655Z,168.05
2023-05-06T09:45:40.736Z,167.74
2023-05-06T09:46:40.943Z,169.86
2023-05-06T09:47:40.938Z,169.12
2023-05-06T09:48:40.922Z,170.65
2023-05-06T09:49:41.025Z,169.32
2023-05-06T09:50:41.043Z,173.22
2023-05-06T09:51:41.111Z,173.02
2023-05-06T09:52:41.175Z,177.11
2023-05-06T09:53:41.239Z,181.37
2023-05-06T09:54:41.296Z,182.42
2023-05-06T09:55:41.356Z,184.90
2023-05-06T09:56:41.414Z,187.55
2023-05-06T09:57:41.471Z,187.71
2023-05-06T09:58:41.535Z,188.55
2023-05-06T09:59:41.606Z,189.60
2023-05-06T10:00:41.653Z,189.90
2023-05-06T10:01:42.176Z,190.80
2023-05-06T10:02:42.005Z,192.47
2023-05-06T10:03:41.967Z,193.31
2023-05-06T10:04:42.243Z,194.60
2023-05-06T10:05:42.015Z,198.36
2023-05-06T10:06:41.976Z,197.88
2023-05-06T10:07:42.037Z,200.74
2023-05-06T10:08:42.072Z,201.92
2023-05-06T10:09:42.134Z,203.62
2023-05-06T10:10:42.165Z,204.97
2023-05-06T10:11:42.229Z,204.84
2023-05-06T10:12:42.281Z,208.89
2023-05-06T10:13:42.306Z,210.50
2023-05-06T10:14:42.357Z,209.16
2023-05-06T10:15:42.451Z,210.22
2023-05-06T10:16:42.542Z,212.84
2023-05-06T10:17:42.571Z,215.65
2023-05-06T10:18:42.541Z,215.76
2023-05-06T10:19:42.564Z,217.10
2023-05-06T10:20:42.620Z,214.28
2023-05-06T10:21:42.681Z,214.46
2023-05-06T10:22:42.702Z,215.63
2023-05-06T10:23:42.771Z,216.22
2023-05-06T10:24:42.784Z,216.34
2023-05-06T10:25:43.800Z,217.49
2023-05-06T10:26:42.864Z,216.04
2023-05-06T10:27:42.896Z,216.57
2023-05-06T10:28:42.948Z,216.93
2023-05-06T10:29:43.009Z,215.83
2023-05-06T10:30:43.038Z,218.12
2023-05-06T10:31:43.131Z,217.01
2023-05-06T10:32:43.186Z,218.94
2023-05-06T10:33:43.241Z,218.59
2023-05-06T10:34:43.221Z,216.37
2023-05-06T10:35:43.335Z,218.08
2023-05-06T10:36:43.338Z,216.33
2023-05-06T10:37:43.480Z,220.60
2023-05-06T10:38:43.432Z,218.36
2023-05-06T10:39:43.485Z,217.91
2023-05-06T10:40:43.561Z,216.78
2023-05-06T10:41:43.601Z,217.36
2023-05-06T10:42:43.650Z,217.44
2023-05-06T10:43:43.698Z,218.18
2023-05-06T10:44:45.640Z,215.05
2023-05-06T10:45:43.777Z,220.44
2023-05-06T10:46:44.285Z,218.75
2023-05-06T10:47:43.810Z,215.97
2023-05-06T10:48:43.775Z,215.09
2023-05-06T10:49:43.780Z,215.99
2023-05-06T10:50:45.693Z,214.59
2023-05-06T10:51:43.780Z,214.85
2023-05-06T10:52:43.799Z,214.97
2023-05-06T10:53:43.813Z,215.09
2023-05-06T10:54:43.797Z,214.61
2023-05-06T10:55:43.805Z,212.88
2023-05-06T10:56:46.283Z,214.69
2023-05-06T10:57:43.806Z,214.88
2023-05-06T10:58:43.813Z,215.26
2023-05-06T10:59:43.807Z,213.66
2023-05-06T11:00:43.850Z,213.08
2023-05-06T11:01:43.861Z,211.08
2023-05-06T11:02:46.107Z,212.61
2023-05-06T11:03:43.908Z,213.01
2023-05-06T11:04:43.846Z,212.63
2023-05-06T11:05:43.850Z,211.14
2023-05-06T11:06:43.855Z,208.62
2023-05-06T11:07:43.872Z,209.78
2023-05-06T11:08:46.475Z,209.51
2023-05-06T11:09:44.050Z,209.74
2023-05-06T11:10:43.967Z,209.55
2023-05-06T11:11:43.929Z,207.84
2023-05-06T11:12:43.976Z,208.26
2023-05-06T11:13:43.963Z,207.34
2023-05-06T11:14:43.974Z,206.33
2023-05-06T11:15:43.982Z,206.72
2023-05-06T11:16:44.061Z,206.09
2023-05-06T11:17:44.042Z,207.70
2023-05-06T11:18:44.053Z,207.10
2023-05-06T11:19:44.044Z,204.45
2023-05-06T11:20:44.061Z,204.31
2023-05-06T11:21:44.073Z,201.89
2023-05-06T11:22:44.096Z,202.84
2023-05-06T11:23:44.106Z,201.13
2023-05-06T11:24:44.117Z,200.66
2023-05-06T11:25:44.211Z,199.80
2023-05-06T11:26:44.119Z,200.13
2023-05-06T11:27:44.133Z,200.37
2023-05-06T11:28:44.150Z,198.53
2023-05-06T11:29:44.158Z,198.50
2023-05-06T11:30:44.229Z,199.84
2023-05-06T11:31:44.175Z,196.73
2023-05-06T11:32:44.211Z,195.26
2023-05-06T11:33:44.251Z,196.25
2023-05-06T11:34:44.328Z,193.93
2023-05-06T11:35:44.389Z,193.75
2023-05-06T11:36:44.463Z,193.41
2023-05-06T11:37:44.553Z,190.13
2023-05-06T11:38:44.602Z,194.06
2023-05-06T11:39:44.687Z,191.31
2023-05-06T11:40:44.761Z,191.43
2023-05-06T11:41:44.851Z,192.20
2023-05-06T11:42:44.890Z,189.33
2023-05-06T11:43:44.956Z,189.71
2023-05-06T11:44:45.028Z,189.12
2023-05-06T11:45:45.112Z,188.70
2023-05-06T11:46:45.211Z,189.66
2023-05-06T11:47:45.298Z,186.18
2023-05-06T11:48:45.318Z,185.09
2023-05-06T11:49:45.408Z,187.70
2023-05-06T11:50:45.485Z,184.13
2023-05-06T11:51:45.568Z,183.89
2023-05-06T11:52:45.628Z,183.85
2023-05-06T11:53:45.702Z,181.42
2023-05-06T11:54:45.776Z,182.84
2023-05-06T11:55:45.845Z,182.30
2023-05-06T11:56:45.929Z,182.64
2023-05-06T11:57:46.114Z,183.43
2023-05-06T11:58:46.085Z,182.23
2023-05-06T11:59:46.159Z,180.29
2023-05-06T12:00:46.237Z,178.86
2023-05-06T12:01:46.314Z,179.27
2023-05-06T12:02:46.435Z,175.93
2023-05-06T12:03:46.581Z,176.38
2023-05-06T12:04:46.628Z,177.09
2023-05-06T12:05:46.621Z,179.01
2023-05-06T12:06:46.699Z,177.18
2023-05-06T12:07:46.774Z,178.69
2023-05-06T12:08:47.513Z,175.45
2023-05-06T12:09:46.937Z,175.73
2023-05-06T12:10:46.984Z,173.53
2023-05-06T12:11:47.065Z,174.88
2023-05-06T12:12:47.213Z,175.21
2023-05-06T12:13:47.419Z,174.00
2023-05-06T12:14:47.278Z,174.38
2023-05-06T12:15:47.383Z,170.79
2023-05-06T12:16:47.507Z,169.46
2023-05-06T12:17:47.527Z,170.53
2023-05-06T12:18:47.623Z,170.98
2023-05-06T12:19:47.689Z,169.35
2023-05-06T12:20:47.733Z,168.70
2023-05-06T12:21:47.822Z,168.52
2023-05-06T12:22:47.895Z,166.41
2023-05-06T12:23:48.048Z,167.12
2023-05-06T12:24:48.079Z,167.81
2023-05-06T12:25:48.130Z,168.28
2023-05-06T12:26:48.204Z,165.21
2023-05-06T12:27:48.291Z,166.09
2023-05-06T12:28:48.345Z,164.02
2023-05-06T12:29:48.528Z,164.66
2023-05-06T12:30:48.514Z,166.79
2023-05-06T12:31:48.659Z,163.27
2023-05-06T12:32:48.705Z,163.27
2023-05-06T12:33:48.736Z,162.98
2023-05-06T12:34:48.799Z,162.05
2023-05-06T12:35:48.876Z,160.63
2023-05-06T12:36:48.955Z,161.92
2023-05-06T12:37:49.030Z,163.52
2023-05-06T12:38:49.103Z,160.17
2023-05-06T12:39:49.194Z,160.24
2023-05-06T12:40:49.251Z,161.46
2023-05-06T12:41:49.335Z,160.58
2023-05-06T12:42:49.427Z,162.97
2023-05-06T12:43:49.503Z,159.06